createdAt,value
2018-08-19T00:02:20.289Z,21.30
2018-08-19T00:05:05.962Z,21.50
2018-08-19T00:07:40.899Z,21.40
2018-08-19T00:10:10.235Z,21.20
2018-08-19T00:12:44.574Z,21.10
2018-08-19T00:15:14.721Z,21.10
2018-08-19T00:17:44.289Z,21.00
2018-08-19T00:20:14.197Z,21.00
2018-08-19T00:22:43.523Z,21.20
2018-08-19T00:25:22.668Z,21.30
2018-08-19T00:27:51.999Z,21.30
2018-08-19T00:30:21.372Z,21.20
2018-08-19T00:32:50.695Z,21.20
2018-08-19T00:35:20.046Z,21.20
2018-08-19T00:37:49.359Z,21.20
2018-08-19T00:40:18.676Z,21.20
2018-08-19T00:42:48.022Z,21.30
2018-08-19T00:45:17.804Z,21.10
2018-08-19T00:47:47.940Z,21.00
2018-08-19T00:50:17.324Z,20.80
2018-08-19T00:52:46.655Z,20.70
2018-08-19T00:55:15.987Z,20.80
2018-08-19T00:57:59.986Z,20.80
2018-08-19T01:00:29.830Z,20.60
2018-08-19T01:02:59.312Z,20.30
2018-08-19T01:05:29.015Z,20.00
2018-08-19T01:07:59.232Z,19.80
2018-08-19T01:10:28.656Z,19.70
2018-08-19T01:12:57.973Z,19.70
2018-08-19T01:15:27.415Z,20.00
2018-08-19T01:17:57.712Z,20.00
2018-08-19T01:20:27.037Z,20.10
2018-08-19T01:22:56.388Z,20.20
2018-08-19T01:25:25.699Z,20.10
2018-08-19T01:27:55.040Z,20.20
2018-08-19T01:30:25.941Z,20.20
2018-08-19T01:32:55.292Z,20.20
2018-08-19T01:35:29.998Z,20.20
2018-08-19T01:37:59.312Z,20.40
2018-08-19T01:40:28.676Z,20.50
2018-08-19T01:42:58.775Z,20.30
2018-08-19T01:45:28.220Z,20.30
2018-08-19T01:47:57.587Z,20.10
2018-08-19T01:50:26.987Z,19.80
2018-08-19T01:52:56.346Z,19.70
2018-08-19T01:55:25.666Z,19.60
2018-08-19T01:57:56.187Z,19.70
2018-08-19T02:00:25.500Z,19.70
2018-08-19T02:02:59.084Z,19.80
2018-08-19T02:05:28.401Z,19.90
2018-08-19T02:07:59.612Z,19.90
2018-08-19T02:10:29.860Z,19.90
2018-08-19T02:12:59.643Z,19.90
2018-08-19T02:15:29.939Z,19.80
2018-08-19T02:18:06.028Z,19.60
2018-08-19T02:20:39.675Z,19.70
2018-08-19T02:23:10.469Z,19.70
2018-08-19T02:25:45.801Z,19.60
2018-08-19T02:28:19.640Z,19.50
2018-08-19T02:30:54.144Z,19.40
2018-08-19T02:33:24.247Z,19.20
2018-08-19T02:35:59.211Z,19.00
2018-08-19T02:38:28.555Z,18.70
2018-08-19T02:40:57.878Z,18.60
2018-08-19T02:43:27.181Z,18.50
2018-08-19T02:45:56.511Z,18.60
2018-08-19T02:48:44.619Z,18.80
2018-08-19T02:51:15.227Z,18.90
2018-08-19T02:53:45.798Z,19.10
2018-08-19T02:56:15.886Z,19.10
2018-08-19T02:58:46.221Z,19.20
2018-08-19T03:01:16.723Z,19.20
2018-08-19T03:03:46.071Z,19.30
2018-08-19T03:06:16.354Z,19.30
2018-08-19T03:08:50.915Z,19.40
2018-08-19T03:11:21.645Z,19.30
2018-08-19T03:13:50.952Z,19.00
2018-08-19T03:16:20.334Z,19.00
2018-08-19T03:18:51.555Z,19.10
2018-08-19T03:21:21.803Z,19.00
2018-08-19T03:23:52.694Z,19.00
2018-08-19T03:26:22.131Z,19.00
2018-08-19T03:28:51.437Z,19.00
2018-08-19T03:31:20.772Z,19.10
2018-08-19T03:33:50.520Z,19.00
2018-08-19T03:36:19.902Z,18.70
2018-08-19T03:38:49.200Z,18.60
2018-08-19T03:41:18.529Z,18.40
2018-08-19T03:43:58.997Z,18.60
2018-08-19T03:46:29.626Z,18.80
2018-08-19T03:48:58.935Z,18.90
2018-08-19T03:51:28.281Z,18.50
2018-08-19T03:53:57.584Z,18.40
2018-08-19T03:56:27.424Z,18.30
2018-08-19T03:58:58.339Z,18.40
2018-08-19T04:01:38.254Z,18.60
2018-08-19T04:04:07.570Z,18.80
2018-08-19T04:06:38.848Z,18.90
2018-08-19T04:09:08.288Z,19.00
2018-08-19T04:11:37.667Z,19.00
2018-08-19T04:14:37.985Z,19.10
2018-08-19T04:17:08.209Z,19.10
2018-08-19T04:19:37.560Z,18.90
2018-08-19T04:22:07.414Z,18.60
2018-08-19T04:24:37.007Z,18.70
2018-08-19T04:27:08.994Z,18.60
2018-08-19T04:29:38.554Z,18.60
2018-08-19T04:32:11.399Z,18.30
2018-08-19T04:34:41.459Z,18.20
2018-08-19T04:37:10.823Z,18.20
2018-08-19T04:39:40.230Z,18.10
2018-08-19T04:42:09.592Z,18.10
2018-08-19T04:44:38.942Z,17.90
2018-08-19T04:47:20.958Z,18.00
2018-08-19T04:49:52.234Z,18.10
2018-08-19T04:52:22.751Z,18.00
2018-08-19T04:54:53.240Z,18.40
2018-08-19T04:57:22.642Z,18.50
2018-08-19T04:59:52.019Z,18.60
2018-08-19T05:02:21.653Z,18.70
2018-08-19T05:04:50.962Z,18.80
2018-08-19T05:07:20.372Z,18.80
2018-08-19T05:09:50.233Z,18.70
2018-08-19T05:12:19.940Z,18.80
2018-08-19T05:14:50.286Z,18.80
2018-08-19T05:17:19.626Z,18.60
2018-08-19T05:19:49.330Z,18.60
2018-08-19T05:22:18.691Z,18.50
2018-08-19T05:24:48.059Z,18.60
2018-08-19T05:27:17.612Z,18.40
2018-08-19T05:29:47.806Z,18.60
2018-08-19T05:32:17.172Z,18.90
2018-08-19T05:34:46.532Z,19.20
2018-08-19T05:37:15.854Z,19.40
2018-08-19T05:39:51.281Z,19.40
2018-08-19T05:42:20.635Z,19.40
2018-08-19T05:44:49.993Z,19.40
2018-08-19T05:47:19.372Z,19.60
2018-08-19T05:50:19.151Z,19.60
2018-08-19T05:52:48.563Z,20.00
2018-08-19T05:55:18.013Z,20.50
2018-08-19T05:57:47.384Z,21.00
2018-08-19T06:00:23.190Z,21.30
2018-08-19T06:02:53.528Z,21.60
2018-08-19T06:05:22.896Z,21.80
2018-08-19T06:07:57.668Z,22.00
2018-08-19T06:10:27.359Z,22.20
2018-08-19T06:12:56.810Z,22.30
2018-08-19T06:15:26.996Z,22.60
2018-08-19T06:17:56.376Z,22.70
2018-08-19T06:20:29.177Z,22.80
2018-08-19T06:22:58.517Z,22.60
2018-08-19T06:25:27.928Z,22.70
2018-08-19T06:27:58.241Z,22.70
2018-08-19T06:30:27.683Z,23.20
2018-08-19T06:32:57.095Z,23.20
2018-08-19T06:35:26.484Z,23.40
2018-08-19T06:37:55.827Z,23.40
2018-08-19T06:40:25.190Z,23.80
2018-08-19T06:42:54.524Z,24.00
2018-08-19T06:45:23.903Z,23.80
2018-08-19T06:47:53.255Z,24.20
2018-08-19T06:50:25.795Z,24.10
2018-08-19T06:52:55.738Z,24.50
2018-08-19T06:55:25.202Z,24.50
2018-08-19T06:57:55.947Z,24.60
2018-08-19T07:00:30.021Z,24.90
2018-08-19T07:03:01.064Z,25.20
2018-08-19T07:05:30.565Z,24.90
2018-08-19T07:08:00.330Z,24.80
2018-08-19T07:10:34.949Z,24.00
2018-08-19T07:13:06.411Z,24.80
2018-08-19T07:15:37.036Z,25.10
2018-08-19T07:18:07.824Z,25.20
2018-08-19T07:20:37.841Z,25.70
2018-08-19T07:23:07.663Z,26.30
2018-08-19T07:25:38.814Z,26.50
2018-08-19T07:28:09.498Z,26.30
2018-08-19T07:30:39.313Z,26.30
2018-08-19T07:33:08.801Z,26.40
2018-08-19T07:35:38.179Z,26.60
2018-08-19T07:38:07.904Z,26.50
2018-08-19T07:40:37.695Z,26.50
2018-08-19T07:43:07.092Z,26.60
2018-08-19T07:45:36.484Z,26.80
2018-08-19T07:48:06.195Z,27.40
2018-08-19T07:50:35.595Z,27.50
2018-08-19T07:53:05.063Z,27.80
2018-08-19T07:55:34.423Z,28.40
2018-08-19T07:58:03.787Z,28.50
2018-08-19T08:00:39.058Z,28.60
2018-08-19T08:03:08.456Z,28.10
2018-08-19T08:05:43.026Z,28.20
2018-08-19T08:08:12.403Z,28.30
2018-08-19T08:10:41.732Z,29.20
2018-08-19T08:13:12.231Z,29.10
2018-08-19T08:15:49.643Z,29.70
2018-08-19T08:18:19.010Z,30.30
2018-08-19T08:20:48.506Z,30.20
2018-08-19T08:23:20.097Z,30.70
2018-08-19T08:25:49.963Z,31.10
2018-08-19T08:28:19.463Z,30.80
2018-08-19T08:30:48.804Z,30.60
2018-08-19T08:33:18.147Z,30.90
2018-08-19T08:35:55.386Z,31.30
2018-08-19T08:38:24.790Z,31.50
2018-08-19T08:40:54.888Z,31.80
2018-08-19T08:43:24.248Z,31.70
2018-08-19T08:45:56.210Z,30.80
2018-08-19T08:48:25.732Z,30.80
2018-08-19T08:50:55.126Z,31.80
2018-08-19T08:53:29.948Z,32.90
2018-08-19T08:55:59.272Z,33.00
2018-08-19T08:58:28.981Z,32.80
2018-08-19T09:00:58.443Z,32.60
2018-08-19T09:03:27.876Z,32.50
2018-08-19T09:05:57.385Z,33.30
2018-08-19T09:08:26.801Z,33.20
2018-08-19T09:10:56.451Z,34.00
2018-08-19T09:13:26.259Z,33.70
2018-08-19T09:15:55.661Z,33.70
2018-08-19T09:18:25.039Z,33.70
2018-08-19T09:20:54.440Z,34.20
2018-08-19T09:23:23.916Z,34.40
2018-08-19T09:25:53.892Z,34.00
2018-08-19T09:28:23.305Z,33.60
2018-08-19T09:30:52.646Z,33.50
2018-08-19T09:33:21.967Z,34.10
2018-08-19T09:35:51.351Z,33.90
2018-08-19T09:38:22.851Z,33.00
2018-08-19T09:40:52.717Z,34.20
2018-08-19T09:43:21.978Z,34.30
2018-08-19T09:45:51.559Z,33.80
2018-08-19T09:48:20.907Z,33.90
2018-08-19T09:50:50.330Z,35.10
2018-08-19T09:53:19.663Z,35.80
2018-08-19T09:55:55.450Z,35.60
2018-08-19T09:58:24.782Z,36.10
2018-08-19T10:00:59.379Z,36.50
2018-08-19T10:03:31.124Z,36.80
2018-08-19T10:06:00.655Z,36.50
2018-08-19T10:08:29.969Z,36.70
2018-08-19T10:10:59.389Z,37.00
2018-08-19T10:13:28.759Z,36.90
2018-08-19T10:15:58.150Z,36.90
2018-08-19T10:18:27.465Z,37.30
2018-08-19T10:20:57.543Z,36.80
2018-08-19T10:23:26.879Z,36.60
2018-08-19T10:25:56.484Z,36.90
2018-08-19T10:28:25.789Z,37.10
2018-08-19T10:30:58.894Z,37.30
2018-08-19T10:33:28.229Z,37.60
2018-08-19T10:35:58.823Z,37.70
2018-08-19T10:38:28.162Z,37.50
2018-08-19T10:41:03.092Z,37.80
2018-08-19T10:43:32.420Z,38.10
2018-08-19T10:46:01.800Z,38.30
2018-08-19T10:48:31.604Z,38.50
2018-08-19T10:51:02.895Z,38.90
2018-08-19T10:53:32.581Z,38.70
2018-08-19T10:56:03.087Z,38.50
2018-08-19T10:58:32.847Z,38.40
2018-08-19T11:01:02.260Z,37.80
2018-08-19T11:03:31.629Z,35.90
2018-08-19T11:06:15.405Z,35.10
2018-08-19T11:08:48.886Z,35.70
2018-08-19T11:11:18.247Z,37.20
2018-08-19T11:13:47.613Z,37.60
2018-08-19T11:16:17.049Z,38.40
2018-08-19T11:18:47.564Z,38.90
2018-08-19T11:21:30.248Z,38.90
2018-08-19T11:23:59.978Z,39.30
2018-08-19T11:26:29.391Z,39.60
2018-08-19T11:28:59.615Z,39.50
2018-08-19T11:31:34.331Z,39.80
2018-08-19T11:34:06.092Z,39.50
2018-08-19T11:36:40.475Z,39.20
2018-08-19T11:39:12.402Z,39.80
2018-08-19T11:41:41.804Z,39.90
2018-08-19T11:44:14.117Z,39.90
2018-08-19T11:46:43.527Z,39.60
2018-08-19T11:49:14.275Z,39.50
2018-08-19T11:52:02.226Z,38.30
2018-08-19T11:54:32.402Z,37.80
2018-08-19T11:57:06.862Z,38.10
2018-08-19T11:59:36.952Z,38.20
2018-08-19T12:02:08.097Z,37.70
2018-08-19T12:04:37.411Z,38.20
2018-08-19T12:07:07.008Z,38.00
2018-08-19T12:09:36.524Z,36.50
2018-08-19T12:12:05.851Z,35.40
2018-08-19T12:14:36.802Z,35.00
2018-08-19T12:17:08.513Z,34.50
2018-08-19T12:19:41.000Z,34.20
2018-08-19T12:22:10.680Z,33.90
2018-08-19T12:24:43.736Z,33.50
2018-08-19T12:27:14.392Z,34.10
2018-08-19T12:29:44.423Z,34.50
2018-08-19T12:32:18.008Z,35.00
2018-08-19T12:34:52.411Z,34.50
2018-08-19T12:37:23.133Z,34.20
2018-08-19T12:39:52.860Z,34.20
2018-08-19T12:42:22.263Z,34.90
2018-08-19T12:44:58.283Z,35.20
2018-08-19T12:47:28.207Z,35.20
2018-08-19T12:49:58.963Z,35.70
2018-08-19T12:52:29.615Z,36.50
2018-08-19T12:55:05.135Z,37.00
2018-08-19T12:57:35.200Z,36.90
2018-08-19T13:00:15.631Z,36.70
2018-08-19T13:02:46.311Z,37.10
2018-08-19T13:05:16.595Z,37.10
2018-08-19T13:07:46.203Z,36.90
2018-08-19T13:10:15.898Z,37.10
2018-08-19T13:12:56.543Z,36.50
2018-08-19T13:15:27.812Z,36.00
2018-08-19T13:17:57.230Z,36.50
2018-08-19T13:20:26.920Z,36.20
2018-08-19T13:23:02.643Z,35.00
2018-08-19T13:25:32.358Z,34.40
2018-08-19T13:28:01.728Z,34.30
2018-08-19T13:30:31.116Z,34.20
2018-08-19T13:33:00.499Z,34.80
2018-08-19T13:35:29.886Z,35.10
2018-08-19T13:37:59.288Z,35.50
2018-08-19T13:40:28.626Z,35.60
2018-08-19T13:42:58.021Z,35.80
2018-08-19T13:45:27.531Z,35.80
2018-08-19T13:47:56.938Z,35.50
2018-08-19T13:50:26.371Z,35.20
2018-08-19T13:52:55.735Z,34.70
2018-08-19T13:55:25.378Z,34.60
2018-08-19T13:57:54.715Z,34.30
2018-08-19T14:00:28.269Z,34.20
2018-08-19T14:02:57.625Z,34.00
2018-08-19T14:05:27.005Z,33.90
2018-08-19T14:07:56.380Z,33.90
2018-08-19T14:10:25.792Z,33.70
2018-08-19T14:12:55.134Z,33.40
2018-08-19T14:15:24.540Z,33.10
2018-08-19T14:17:53.923Z,33.00
2018-08-19T14:20:23.435Z,32.70
2018-08-19T14:22:52.771Z,32.40
2018-08-19T14:25:22.352Z,32.30
2018-08-19T14:27:51.683Z,32.00
2018-08-19T14:30:21.182Z,31.70
2018-08-19T14:32:50.519Z,31.50
2018-08-19T14:35:19.890Z,31.40
2018-08-19T14:37:49.214Z,31.20
2018-08-19T14:40:19.290Z,31.20
2018-08-19T14:42:48.502Z,31.40
2018-08-19T14:45:17.866Z,31.40
2018-08-19T14:47:47.264Z,31.50
2018-08-19T14:50:18.419Z,31.50
2018-08-19T14:52:47.772Z,31.60
2018-08-19T14:55:17.106Z,31.30
2018-08-19T14:57:46.475Z,31.00
2018-08-19T15:00:17.068Z,30.80
2018-08-19T15:02:46.463Z,30.40
2018-08-19T15:05:18.379Z,30.40
2018-08-19T15:07:48.073Z,30.60
2018-08-19T15:10:19.812Z,30.60
2018-08-19T15:12:49.196Z,30.60
2018-08-19T15:15:18.564Z,30.60
2018-08-19T15:18:00.930Z,30.90
2018-08-19T15:20:33.437Z,30.90
2018-08-19T15:23:15.228Z,30.90
2018-08-19T15:25:44.723Z,31.00
2018-08-19T15:28:14.309Z,30.90
2018-08-19T15:30:43.677Z,31.00
2018-08-19T15:33:14.010Z,30.90
2018-08-19T15:35:43.543Z,30.70
2018-08-19T15:38:13.243Z,30.50
2018-08-19T15:40:45.357Z,30.50
2018-08-19T15:43:14.834Z,30.60
2018-08-19T15:45:44.816Z,30.70
2018-08-19T15:48:14.193Z,30.50
2018-08-19T15:50:43.608Z,30.40
2018-08-19T15:53:13.001Z,30.40
2018-08-19T15:55:42.385Z,30.40
2018-08-19T15:58:11.783Z,30.40
2018-08-19T16:00:42.238Z,30.40
2018-08-19T16:03:12.473Z,30.40
2018-08-19T16:05:41.823Z,30.30
2018-08-19T16:08:11.179Z,30.10
2018-08-19T16:10:40.512Z,30.20
2018-08-19T16:13:11.181Z,30.00
2018-08-19T16:15:40.503Z,30.00
2018-08-19T16:18:09.880Z,29.90
2018-08-19T16:20:39.247Z,29.80
2018-08-19T16:23:08.634Z,29.90
2018-08-19T16:25:37.994Z,29.90
2018-08-19T16:28:07.354Z,29.90
2018-08-19T16:30:36.771Z,29.80
2018-08-19T16:33:06.152Z,29.80
2018-08-19T16:35:35.502Z,29.80
2018-08-19T16:38:04.959Z,29.90
2018-08-19T16:40:34.360Z,29.80
2018-08-19T16:43:03.707Z,29.90
2018-08-19T16:45:33.071Z,29.70
2018-08-19T16:48:02.421Z,29.70
2018-08-19T16:50:31.952Z,29.60
2018-08-19T16:53:01.202Z,29.50
2018-08-19T16:55:30.618Z,29.50
2018-08-19T16:58:00.010Z,29.50
2018-08-19T17:00:29.500Z,29.40
2018-08-19T17:02:59.025Z,29.40
2018-08-19T17:05:31.493Z,29.40
2018-08-19T17:08:00.825Z,29.20
2018-08-19T17:10:30.496Z,29.20
2018-08-19T17:12:59.861Z,29.20
2018-08-19T17:15:29.507Z,29.20
2018-08-19T17:17:59.461Z,29.20
2018-08-19T17:20:28.916Z,29.20
2018-08-19T17:22:58.250Z,29.10
2018-08-19T17:25:27.664Z,29.10
2018-08-19T17:27:59.948Z,29.00
2018-08-19T17:30:29.317Z,28.90
2018-08-19T17:33:02.833Z,28.90
2018-08-19T17:35:32.823Z,28.80
2018-08-19T17:38:02.213Z,28.80
2018-08-19T17:40:32.268Z,28.70
2018-08-19T17:43:02.835Z,28.60
2018-08-19T17:45:32.406Z,28.60
2018-08-19T17:48:01.757Z,28.60
2018-08-19T17:50:31.154Z,28.50
2018-08-19T17:53:01.883Z,28.30
2018-08-19T17:55:31.308Z,28.40
2018-08-19T17:58:00.892Z,28.40
2018-08-19T18:00:30.265Z,28.40
2018-08-19T18:02:59.621Z,28.20
2018-08-19T18:05:29.063Z,28.00
2018-08-19T18:07:58.395Z,27.90
2018-08-19T18:10:27.989Z,27.70
2018-08-19T18:12:57.429Z,27.60
2018-08-19T18:15:26.822Z,27.40
2018-08-19T18:18:01.933Z,27.30
2018-08-19T18:20:35.947Z,27.20
2018-08-19T18:23:07.639Z,27.20
2018-08-19T18:25:37.499Z,27.10
2018-08-19T18:28:17.039Z,27.00
2018-08-19T18:30:51.149Z,26.90
2018-08-19T18:33:21.187Z,26.60
2018-08-19T18:35:50.743Z,26.50
2018-08-19T18:38:28.622Z,26.30
2018-08-19T18:40:58.064Z,26.40
2018-08-19T18:43:27.621Z,26.40
2018-08-19T18:45:57.289Z,26.30
2018-08-19T18:48:27.047Z,26.30
2018-08-19T18:50:57.007Z,26.20
2018-08-19T18:53:27.775Z,26.20
2018-08-19T18:55:57.104Z,26.10
2018-08-19T18:58:27.164Z,26.20
2018-08-19T19:00:59.851Z,26.10
2018-08-19T19:03:29.586Z,26.00
2018-08-19T19:05:59.445Z,26.00
2018-08-19T19:08:29.159Z,25.80
2018-08-19T19:11:05.108Z,25.80
2018-08-19T19:13:35.989Z,25.80
2018-08-19T19:16:06.176Z,25.60
2018-08-19T19:18:35.737Z,25.60
2018-08-19T19:21:06.058Z,25.30
2018-08-19T19:23:38.186Z,25.30
2018-08-19T19:26:08.279Z,25.30
2018-08-19T19:28:37.813Z,25.30
2018-08-19T19:31:12.443Z,25.20
2018-08-19T19:33:41.813Z,25.20
2018-08-19T19:36:16.373Z,25.10
2018-08-19T19:38:51.107Z,25.00
2018-08-19T19:41:26.704Z,25.00
2018-08-19T19:43:56.154Z,25.00
2018-08-19T19:46:25.801Z,25.00
2018-08-19T19:48:56.176Z,24.90
2018-08-19T19:51:25.902Z,24.80
2018-08-19T19:53:55.297Z,24.70
2018-08-19T19:56:24.675Z,24.60
2018-08-19T19:58:54.079Z,24.60
2018-08-19T20:01:24.264Z,24.60
2018-08-19T20:03:55.266Z,24.50
2018-08-19T20:06:25.178Z,24.50
2018-08-19T20:08:58.304Z,24.50
2018-08-19T20:11:28.310Z,24.50
2018-08-19T20:14:01.555Z,24.50
2018-08-19T20:16:30.931Z,24.40
2018-08-19T20:19:00.435Z,24.50
2018-08-19T20:21:30.787Z,24.50
2018-08-19T20:24:00.272Z,24.40
2018-08-19T20:26:29.667Z,24.30
2018-08-19T20:29:00.489Z,24.20
2018-08-19T20:31:29.931Z,24.20
2018-08-19T20:33:59.457Z,24.20
2018-08-19T20:36:28.836Z,24.10
2018-08-19T20:38:58.227Z,24.00
2018-08-19T20:41:27.608Z,24.00
2018-08-19T20:43:57.037Z,23.90
2018-08-19T20:46:26.393Z,23.90
2018-08-19T20:48:56.687Z,23.90
2018-08-19T20:51:26.056Z,23.90
2018-08-19T20:53:55.439Z,23.90
2018-08-19T20:56:24.943Z,23.90
2018-08-19T20:58:54.321Z,23.90
2018-08-19T21:01:27.569Z,23.90
2018-08-19T21:03:57.159Z,23.70
2018-08-19T21:06:26.525Z,23.70
2018-08-19T21:08:55.899Z,23.70
2018-08-19T21:11:25.264Z,23.70
2018-08-19T21:13:54.631Z,23.70
2018-08-19T21:16:24.001Z,23.70
2018-08-19T21:18:53.735Z,23.60
2018-08-19T21:21:24.057Z,23.80
2018-08-19T21:23:53.448Z,23.80
2018-08-19T21:26:22.820Z,23.80
2018-08-19T21:28:56.336Z,23.70
2018-08-19T21:31:25.702Z,23.70
2018-08-19T21:33:55.404Z,23.60
2018-08-19T21:36:24.763Z,23.70
2018-08-19T21:38:54.120Z,23.70
2018-08-19T21:41:28.221Z,23.70
2018-08-19T21:43:57.565Z,23.70
2018-08-19T21:46:27.079Z,23.50
2018-08-19T21:48:56.424Z,23.60
2018-08-19T21:51:25.817Z,23.60
2018-08-19T21:53:55.176Z,23.30
2018-08-19T21:56:24.555Z,23.10
2018-08-19T21:58:53.924Z,23.00
2018-08-19T22:01:27.472Z,23.00
2018-08-19T22:03:56.819Z,23.00
2018-08-19T22:06:26.214Z,23.10
2018-08-19T22:08:55.572Z,23.10
2018-08-19T22:11:25.013Z,23.00
2018-08-19T22:13:54.421Z,23.10
2018-08-19T22:16:23.906Z,22.90
2018-08-19T22:18:53.334Z,22.90
2018-08-19T22:21:24.038Z,22.70
2018-08-19T22:23:56.506Z,22.60
2018-08-19T22:26:25.882Z,22.50
2018-08-19T22:29:10.318Z,22.50
2018-08-19T22:31:39.725Z,22.60
2018-08-19T22:34:09.087Z,22.60
2018-08-19T22:36:38.530Z,22.60
2018-08-19T22:39:09.612Z,22.70
2018-08-19T22:41:39.005Z,22.60
2018-08-19T22:44:08.490Z,22.40
2018-08-19T22:46:38.465Z,22.50
2018-08-19T22:49:07.827Z,22.40
2018-08-19T22:51:37.298Z,22.40
2018-08-19T22:54:06.668Z,22.40
2018-08-19T22:56:36.024Z,22.30
2018-08-19T22:59:07.661Z,22.40
2018-08-19T23:01:43.513Z,22.50
2018-08-19T23:04:14.419Z,22.40
2018-08-19T23:06:43.947Z,22.40
2018-08-19T23:09:13.323Z,22.40
2018-08-19T23:11:47.355Z,22.20
2018-08-19T23:14:27.698Z,22.20
2018-08-19T23:16:57.052Z,22.10
2018-08-19T23:19:26.418Z,22.10
2018-08-19T23:21:56.111Z,22.00
2018-08-19T23:24:25.482Z,21.90
2018-08-19T23:26:54.857Z,21.90
2018-08-19T23:29:24.574Z,21.70
2018-08-19T23:31:53.940Z,21.80
2018-08-19T23:34:23.301Z,22.00
2018-08-19T23:36:52.640Z,22.00
2018-08-19T23:39:22.019Z,21.80
2018-08-19T23:41:51.390Z,21.70
2018-08-19T23:44:20.779Z,21.60
2018-08-19T23:46:50.139Z,21.70
2018-08-19T23:49:19.511Z,21.80
2018-08-19T23:51:48.881Z,22.00
2018-08-19T23:54:18.242Z,22.10
2018-08-19T23:56:47.914Z,22.00
2018-08-19T23:59:21.473Z,21.90
